Time;durP1;ratioP1;P1;durP2;ratioP2;P2;SDS_P1;SDS_P2;PMS_P1;PMS_P2;Temp;Humidity;BMP_temperature;BMP_pressure;BME280_temperature;BME280_humidity;BME280_pressure;Samples;Min_cycle;Max_cycle;Signal;HPM_P1;HPM_P2
2022/10/15 00:00:34;;;;;;;199.32;64.90;;;11.80;99.90;;;;;;5068079;28;20089;-79
2022/10/15 00:03:00;;;;;;;162.95;60.13;;;11.80;99.90;;;;;;5082880;28;20041;-79
2022/10/15 00:05:25;;;;;;;171.00;59.38;;;11.80;99.90;;;;;;5060238;28;20490;-76
2022/10/15 00:07:52;;;;;;;181.38;59.55;;;11.80;99.90;;;;;;5069803;28;20044;-75
2022/10/15 00:10:18;;;;;;;152.88;58.28;;;11.80;99.90;;;;;;5054618;28;20044;-75
2022/10/15 00:12:43;;;;;;;184.05;60.30;;;11.80;99.90;;;;;;5052341;28;20076;-77
2022/10/15 00:15:10;;;;;;;166.10;56.90;;;11.70;99.90;;;;;;5092546;28;20106;-77
2022/10/15 00:17:36;;;;;;;160.18;56.65;;;11.70;99.90;;;;;;5061294;28;20123;-77
2022/10/15 00:20:04;;;;;;;151.40;55.75;;;11.70;99.90;;;;;;5101593;28;20044;-79
2022/10/15 00:22:30;;;;;;;201.32;63.05;;;11.70;99.90;;;;;;5080226;28;20045;-76
2022/10/15 00:24:55;;;;;;;168.40;58.10;;;11.70;99.90;;;;;;5080302;28;20044;-75
2022/10/15 00:27:21;;;;;;;295.70;69.13;;;11.70;99.90;;;;;;5070457;28;20035;-75
2022/10/15 00:29:47;;;;;;;185.70;59.97;;;11.70;99.90;;;;;;5071611;28;20482;-75
2022/10/15 00:32:13;;;;;;;145.30;54.70;;;11.60;99.90;;;;;;5086164;28;20471;-76
2022/10/15 00:34:39;;;;;;;204.10;61.75;;;11.60;99.90;;;;;;5051152;28;20101;-77
2022/10/15 00:37:05;;;;;;;175.40;58.80;;;11.60;99.90;;;;;;5118709;27;20047;-76
2022/10/15 00:39:30;;;;;;;161.00;55.75;;;11.50;99.90;;;;;;5063834;28;20044;-76
2022/10/15 00:41:56;;;;;;;168.75;55.38;;;11.50;99.90;;;;;;5105781;28;20082;-75
2022/10/15 00:44:28;;;;;;;169.70;57.95;;;11.50;99.90;;;;;;5086950;28;20045;-75
2022/10/15 00:47:04;;;;;;;179.98;58.97;;;11.40;99.90;;;;;;5093941;28;20830;-76
2022/10/15 00:49:32;;;;;;;;;;;11.40;99.90;;;;;;5087767;28;20055;-77
2022/10/15 00:52:12;;;;;;;208.85;61.03;;;11.40;99.90;;;;;;5080394;28;19919;-75
2022/10/15 00:54:50;;;;;;;153.95;56.17;;;11.40;99.90;;;;;;5085126;28;20067;-75
2022/10/15 00:57:15;;;;;;;187.00;62.58;;;11.40;99.90;;;;;;5072612;28;20032;-76
2022/10/15 00:59:47;;;;;;;177.68;58.92;;;11.40;99.90;;;;;;5082030;28;20458;-76
2022/10/15 01:02:13;;;;;;;179.40;59.60;;;11.50;99.90;;;;;;5085425;28;20032;-75
2022/10/15 01:04:41;;;;;;;181.02;58.50;;;11.50;99.90;;;;;;5064532;28;20052;-75
2022/10/15 01:07:07;;;;;;;213.75;65.00;;;11.50;99.90;;;;;;5083961;28;20067;-79
2022/10/15 01:09:33;;;;;;;198.20;61.92;;;11.50;99.90;;;;;;5091792;28;20051;-76
2022/10/15 01:11:59;;;;;;;191.45;62.78;;;11.50;99.90;;;;;;5086723;28;20796;-76
2022/10/15 01:14:50;;;;;;;163.85;58.60;;;11.60;99.90;;;;;;5093995;28;20074;-75
2022/10/15 01:17:54;;;;;;;194.50;63.10;;;11.60;99.90;;;;;;5079182;28;20032;-75
2022/10/15 01:20:45;;;;;;;218.60;64.72;;;11.60;99.90;;;;;;5071794;28;20502;-76
2022/10/15 01:23:10;;;;;;;156.82;58.53;;;11.60;99.90;;;;;;5090112;28;20043;-79
2022/10/15 01:25:57;;;;;;;190.90;60.75;;;11.50;99.90;;;;;;5090798;28;20044;-75
2022/10/15 01:28:56;;;;;;;220.20;65.10;;;11.60;99.90;;;;;;5091087;28;20032;-75
2022/10/15 01:31:25;;;;;;;209.45;62.35;;;11.60;99.90;;;;;;5085844;28;20033;-76
2022/10/15 01:34:06;;;;;;;185.30;62.28;;;11.60;99.90;;;;;;5075949;28;20071;-75
2022/10/15 01:36:37;;;;;;;286.75;72.28;;;11.60;99.90;;;;;;5090847;28;20039;-75
2022/10/15 01:39:05;;;;;;;189.88;63.35;;;11.70;99.90;;;;;;5091408;28;20079;-76
2022/10/15 01:41:52;;;;;;;182.07;64.47;;;11.60;99.90;;;;;;5099845;28;20573;-76
2022/10/15 01:44:27;;;;;;;184.93;65.90;;;11.60;99.90;;;;;;5073518;28;20379;-75
2022/10/15 01:47:04;;;;;;;239.18;70.00;;;11.60;99.90;;;;;;5089438;28;20047;-75
2022/10/15 01:49:37;;;;;;;177.45;64.60;;;11.60;99.90;;;;;;5094133;28;20050;-77
2022/10/15 01:52:09;;;;;;;235.15;68.63;;;11.60;99.90;;;;;;5116197;27;20127;-76
2022/10/15 01:54:36;;;;;;;188.60;64.70;;;11.60;99.90;;;;;;5084262;28;20040;-76
2022/10/15 01:57:03;;;;;;;190.43;66.53;;;11.60;99.90;;;;;;5058383;28;20091;-75
2022/10/15 01:59:31;;;;;;;174.35;65.57;;;11.60;99.90;;;;;;5077648;28;20591;-76
2022/10/15 02:01:57;;;;;;;177.15;67.25;;;11.60;99.90;;;;;;5099661;28;20398;-76
2022/10/15 02:04:30;;;;;;;255.93;74.82;;;11.60;99.90;;;;;;5102029;28;20028;-75
2022/10/15 02:07:16;;;;;;;190.68;69.07;;;11.60;99.90;;;;;;5108446;28;20051;-75
2022/10/15 02:09:55;;;;;;;155.40;62.65;;;11.60;99.90;;;;;;5088055;28;20051;-75
2022/10/15 02:12:37;;;;;;;190.05;67.72;;;11.60;99.90;;;;;;5107476;28;20063;-76
2022/10/15 02:15:33;;;;;;;253.55;74.78;;;11.60;99.90;;;;;;5091397;28;20420;-75
2022/10/15 02:18:03;;;;;;;166.40;64.55;;;11.70;99.90;;;;;;5074347;28;20212;-76
2022/10/15 02:20:48;;;;;;;247.20;73.75;;;11.60;99.90;;;;;;5090015;28;20389;-76
2022/10/15 02:23:20;;;;;;;185.65;66.38;;;11.70;99.90;;;;;;5090982;28;20075;-76
2022/10/15 02:25:48;;;;;;;176.38;64.50;;;11.60;99.90;;;;;;5099754;28;20040;-75
2022/10/15 02:28:16;;;;;;;178.20;65.78;;;11.60;99.90;;;;;;5093616;28;20036;-76
2022/10/15 02:30:45;;;;;;;171.43;64.40;;;11.60;99.90;;;;;;5074391;28;20072;-75
2022/10/15 02:33:11;;;;;;;168.25;65.40;;;11.60;99.90;;;;;;5085145;28;20042;-76
2022/10/15 02:35:37;;;;;;;178.60;64.80;;;11.60;99.90;;;;;;5072298;28;20054;-75
2022/10/15 02:38:06;;;;;;;143.02;59.17;;;11.60;99.90;;;;;;5072091;28;20038;-75
2022/10/15 02:40:34;;;;;;;142.70;59.05;;;11.60;99.90;;;;;;5090674;28;20036;-75
2022/10/15 02:43:07;;;;;;;158.48;61.08;;;11.60;99.90;;;;;;5089497;28;20097;-76
2022/10/15 02:45:33;;;;;;;196.85;65.70;;;11.60;99.90;;;;;;5105967;27;20071;-78
2022/10/15 02:47:58;;;;;;;196.38;64.75;;;11.70;99.90;;;;;;5074489;28;20131;-75
2022/10/15 02:50:24;;;;;;;161.15;60.42;;;11.60;99.90;;;;;;5084773;28;20078;-77
2022/10/15 02:52:50;;;;;;;151.30;58.80;;;11.60;99.90;;;;;;5072963;28;20053;-76
2022/10/15 02:55:16;;;;;;;143.55;54.85;;;11.60;99.90;;;;;;5053446;28;20123;-75
2022/10/15 02:57:41;;;;;;;131.93;55.28;;;11.60;99.90;;;;;;5092477;28;20109;-75
2022/10/15 03:00:08;;;;;;;170.15;59.17;;;11.60;99.90;;;;;;5091301;28;20075;-75
2022/10/15 03:02:33;;;;;;;160.68;57.85;;;11.60;99.90;;;;;;5090057;28;20047;-75
2022/10/15 03:04:59;;;;;;;146.52;56.83;;;11.60;99.90;;;;;;5091421;28;20036;-76
2022/10/15 03:07:25;;;;;;;173.10;58.65;;;11.60;99.90;;;;;;5105736;28;20036;-77
2022/10/15 03:09:51;;;;;;;136.05;52.28;;;11.60;99.90;;;;;;5084736;28;20076;-75
2022/10/15 03:12:16;;;;;;;138.20;53.70;;;11.60;99.90;;;;;;5072842;28;20130;-76
2022/10/15 03:14:42;;;;;;;141.18;55.47;;;11.60;99.90;;;;;;5083422;28;20367;-76
2022/10/15 03:17:07;;;;;;;170.93;58.75;;;11.60;99.90;;;;;;5092423;28;20534;-75
2022/10/15 03:19:33;;;;;;;136.40;53.17;;;11.50;99.90;;;;;;5073110;28;20631;-75
2022/10/15 03:21:59;;;;;;;118.57;50.45;;;11.50;99.90;;;;;;5077527;28;20319;-76
2022/10/15 03:24:24;;;;;;;137.10;51.40;;;11.50;99.90;;;;;;5105247;27;20063;-80
2022/10/15 03:26:50;;;;;;;144.50;54.58;;;11.50;99.90;;;;;;5072130;28;20044;-76
2022/10/15 03:29:16;;;;;;;142.00;52.38;;;11.50;99.90;;;;;;5089289;28;20072;-75
2022/10/15 03:31:41;;;;;;;138.60;51.30;;;11.50;99.90;;;;;;5090429;28;20067;-75
2022/10/15 03:34:07;;;;;;;139.27;54.28;;;11.50;99.90;;;;;;5069384;28;20051;-75
2022/10/15 03:36:33;;;;;;;157.82;53.67;;;11.50;99.90;;;;;;5104398;28;20115;-76
2022/10/15 03:38:58;;;;;;;133.07;51.10;;;11.50;99.90;;;;;;5103982;28;20374;-75
2022/10/15 03:41:24;;;;;;;132.55;51.60;;;11.50;99.90;;;;;;5089551;28;20263;-76
2022/10/15 03:43:50;;;;;;;143.07;52.78;;;11.50;99.90;;;;;;5052541;28;20453;-76
2022/10/15 03:46:15;;;;;;;112.85;48.38;;;11.40;99.90;;;;;;5088654;28;20043;-75
2022/10/15 03:48:41;;;;;;;154.40;51.83;;;11.50;99.90;;;;;;5076471;28;20123;-75
2022/10/15 03:51:07;;;;;;;123.05;49.10;;;11.40;99.90;;;;;;5105720;28;20047;-75
2022/10/15 03:53:32;;;;;;;107.05;45.72;;;11.40;99.90;;;;;;5070272;28;20039;-76
2022/10/15 03:56:05;;;;;;;124.45;49.40;;;11.30;99.90;;;;;;5055133;28;20032;-75
2022/10/15 03:58:31;;;;;;;137.77;49.65;;;11.30;99.90;;;;;;5071491;28;20045;-78
2022/10/15 04:00:57;;;;;;;149.23;50.15;;;11.30;99.90;;;;;;5101976;28;20070;-75
2022/10/15 04:03:22;;;;;;;110.38;45.08;;;11.20;99.90;;;;;;5065432;28;20036;-75
2022/10/15 04:05:52;;;;;;;151.15;50.97;;;11.20;99.90;;;;;;5104320;28;20047;-75
2022/10/15 04:08:18;;;;;;;138.18;50.28;;;11.30;99.90;;;;;;5066549;28;20089;-75
2022/10/15 04:10:43;;;;;;;118.40;49.58;;;11.30;99.90;;;;;;5091300;28;20055;-76
2022/10/15 04:13:09;;;;;;;140.18;49.72;;;11.20;99.90;;;;;;5074405;28;20070;-77
2022/10/15 04:15:38;;;;;;;132.10;49.45;;;11.20;99.90;;;;;;5071744;28;20039;-76
2022/10/15 04:18:04;;;;;;;137.10;50.58;;;11.20;99.90;;;;;;5084871;28;20056;-76
2022/10/15 04:20:30;;;;;;;148.82;53.22;;;11.10;99.90;;;;;;5083778;28;20040;-76
2022/10/15 04:22:56;;;;;;;163.07;51.42;;;11.10;99.90;;;;;;5086193;28;20040;-76
2022/10/15 04:25:21;;;;;;;174.05;53.55;;;11.10;99.90;;;;;;5086165;28;20371;-76
2022/10/15 04:27:47;;;;;;;150.00;52.08;;;11.10;99.90;;;;;;5091613;28;20049;-76
2022/10/15 04:30:13;;;;;;;138.30;53.20;;;11.20;99.90;;;;;;5106462;28;20032;-75
2022/10/15 04:32:39;;;;;;;182.88;56.10;;;11.10;99.90;;;;;;5070785;28;20040;-76
2022/10/15 04:35:05;;;;;;;155.10;51.53;;;11.10;99.90;;;;;;5075429;28;20093;-76
2022/10/15 04:37:34;;;;;;;161.35;53.65;;;11.10;99.90;;;;;;5087572;28;20032;-76
2022/10/15 04:40:00;;;;;;;186.10;55.10;;;11.00;99.90;;;;;;5108139;28;20112;-75
2022/10/15 04:42:28;;;;;;;128.38;51.05;;;11.00;99.90;;;;;;5086905;28;20039;-78
2022/10/15 04:44:54;;;;;;;175.45;55.70;;;10.90;99.90;;;;;;5104686;28;20043;-75
2022/10/15 04:47:19;;;;;;;158.05;55.70;;;11.00;99.90;;;;;;5054871;28;20056;-76
2022/10/15 04:49:45;;;;;;;159.32;54.58;;;11.00;99.90;;;;;;5098372;28;20044;-76
2022/10/15 04:52:10;;;;;;;176.68;56.40;;;11.00;99.90;;;;;;5071628;28;20043;-75
2022/10/15 04:54:36;;;;;;;196.63;57.75;;;11.00;99.90;;;;;;5088325;28;20044;-79
2022/10/15 04:57:05;;;;;;;168.45;54.50;;;11.00;99.90;;;;;;5088314;28;20032;-75
2022/10/15 04:59:31;;;;;;;226.73;62.40;;;11.00;99.90;;;;;;5062642;28;20486;-75
2022/10/15 05:01:57;;;;;;;161.82;55.90;;;11.00;99.90;;;;;;5089067;28;20044;-75
2022/10/15 05:04:22;;;;;;;220.25;64.03;;;11.00;99.90;;;;;;5071843;28;20043;-75
2022/10/15 05:06:48;;;;;;;170.65;58.15;;;11.00;99.90;;;;;;5087926;28;20051;-76
2022/10/15 05:09:14;;;;;;;186.10;59.60;;;11.00;99.90;;;;;;5071820;28;20139;-76
2022/10/15 05:11:40;;;;;;;165.63;57.72;;;11.00;99.90;;;;;;5072628;28;20044;-79
2022/10/15 05:14:05;;;;;;;245.13;66.57;;;11.00;99.90;;;;;;5088123;28;20121;-76
2022/10/15 05:16:32;;;;;;;258.58;66.70;;;11.00;99.90;;;;;;5104231;28;20089;-75
2022/10/15 05:19:04;;;;;;;228.25;64.03;;;11.00;99.90;;;;;;5054629;28;20076;-75
2022/10/15 05:21:31;;;;;;;176.82;61.72;;;11.00;99.90;;;;;;5068241;28;20044;-76
2022/10/15 05:23:58;;;;;;;199.32;63.85;;;11.00;99.90;;;;;;5078383;28;20123;-75
2022/10/15 05:26:25;;;;;;;169.15;59.25;;;11.10;99.90;;;;;;5085809;28;20048;-77
2022/10/15 05:28:52;;;;;;;267.25;70.15;;;11.00;99.90;;;;;;5086912;28;20075;-75
2022/10/15 05:31:20;;;;;;;172.32;62.75;;;11.00;99.90;;;;;;5082654;28;20032;-75
2022/10/15 05:33:47;;;;;;;237.35;67.93;;;11.10;99.90;;;;;;5101251;28;20093;-76
2022/10/15 05:36:18;;;;;;;193.75;63.50;;;11.10;99.90;;;;;;5088240;28;20054;-76
2022/10/15 05:38:45;;;;;;;196.73;62.47;;;11.10;99.90;;;;;;5087119;28;20083;-79
2022/10/15 05:41:11;;;;;;;203.68;63.17;;;11.10;99.90;;;;;;5084893;28;20051;-75
2022/10/15 05:43:37;;;;;;;187.73;63.80;;;11.10;99.90;;;;;;5084269;28;20364;-75
2022/10/15 05:46:03;;;;;;;185.65;63.08;;;11.10;99.90;;;;;;5068856;28;20052;-76
2022/10/15 05:48:28;;;;;;;237.60;66.88;;;11.10;99.90;;;;;;5067352;28;20052;-76
2022/10/15 05:51:03;;;;;;;208.40;64.90;;;11.10;99.90;;;;;;5079170;28;20035;-76
2022/10/15 05:53:29;;;;;;;254.95;69.15;;;11.10;99.90;;;;;;5052459;28;20041;-76
2022/10/15 05:55:55;;;;;;;229.50;67.65;;;11.10;99.90;;;;;;5090978;28;20046;-77
2022/10/15 05:58:21;;;;;;;172.43;62.53;;;11.10;99.90;;;;;;5091506;28;20085;-76
2022/10/15 06:00:53;;;;;;;196.27;65.72;;;11.10;99.90;;;;;;5090620;28;20048;-79
2022/10/15 06:03:19;;;;;;;224.45;68.03;;;11.10;99.90;;;;;;5089199;28;20047;-75
2022/10/15 06:05:45;;;;;;;249.88;68.53;;;11.10;99.90;;;;;;5097295;28;20051;-76
2022/10/15 06:08:10;;;;;;;194.60;65.85;;;11.10;99.90;;;;;;5073143;28;20040;-76
2022/10/15 06:10:36;;;;;;;264.45;71.72;;;11.10;99.90;;;;;;5068788;28;20044;-76
2022/10/15 06:13:04;;;;;;;217.18;67.68;;;11.10;99.90;;;;;;5053673;28;20047;-76
2022/10/15 06:15:30;;;;;;;185.93;64.30;;;11.20;99.90;;;;;;5106495;28;20481;-76
2022/10/15 06:17:55;;;;;;;197.30;64.45;;;11.20;99.90;;;;;;5088923;28;20044;-76
2022/10/15 06:20:21;;;;;;;194.23;65.25;;;11.20;99.90;;;;;;5099671;28;20041;-76
2022/10/15 06:22:47;;;;;;;238.15;70.13;;;11.20;99.90;;;;;;5083933;28;20091;-76
2022/10/15 06:25:12;;;;;;;204.10;65.18;;;11.20;99.90;;;;;;5056455;28;20043;-76
2022/10/15 06:27:38;;;;;;;191.85;62.65;;;11.20;99.90;;;;;;5091181;28;20097;-76
2022/10/15 06:30:05;;;;;;;200.63;64.15;;;11.30;99.90;;;;;;5090406;28;20058;-77
2022/10/15 06:32:30;;;;;;;259.70;72.22;;;11.30;99.90;;;;;;5074374;28;20448;-76
2022/10/15 06:34:56;;;;;;;240.88;70.75;;;11.40;99.90;;;;;;5107509;28;20126;-77
2022/10/15 06:37:22;;;;;;;202.45;66.43;;;11.40;99.90;;;;;;5090731;28;20040;-76
2022/10/15 06:39:47;;;;;;;183.40;65.45;;;11.40;99.90;;;;;;5090750;28;20036;-77
2022/10/15 06:42:13;;;;;;;223.68;66.75;;;11.40;99.90;;;;;;5096730;28;20048;-76
2022/10/15 06:44:39;;;;;;;276.85;73.03;;;11.40;99.90;;;;;;5073661;28;20047;-77
2022/10/15 06:47:06;;;;;;;167.38;60.38;;;11.50;99.90;;;;;;5089842;28;20067;-76
2022/10/15 06:49:31;;;;;;;200.38;67.18;;;11.50;99.90;;;;;;5073860;28;20059;-77
2022/10/15 06:51:58;;;;;;;206.25;66.05;;;11.50;99.90;;;;;;5090317;28;20491;-76
2022/10/15 06:54:24;;;;;;;185.40;65.53;;;11.50;99.90;;;;;;5090466;28;20067;-77
2022/10/15 06:56:50;;;;;;;175.30;62.58;;;11.50;99.90;;;;;;5102671;28;20486;-77
2022/10/15 06:59:16;;;;;;;159.45;61.35;;;11.60;99.90;;;;;;5087660;28;20047;-77
2022/10/15 07:01:41;;;;;;;225.18;67.35;;;11.60;99.90;;;;;;5072840;28;20386;-77
2022/10/15 07:04:07;;;;;;;154.75;59.92;;;11.70;99.90;;;;;;5053129;28;20043;-77
2022/10/15 07:06:34;;;;;;;174.55;61.00;;;11.70;99.90;;;;;;5116994;27;20372;-76
2022/10/15 07:09:04;;;;;;;202.25;62.85;;;11.70;99.90;;;;;;5096098;28;20048;-77
2022/10/15 07:11:30;;;;;;;171.38;60.97;;;11.80;99.90;;;;;;5090217;28;20402;-77
2022/10/15 07:13:57;;;;;;;188.90;63.88;;;11.80;99.90;;;;;;5089811;28;20529;-79
2022/10/15 07:16:23;;;;;;;170.85;62.15;;;11.70;99.90;;;;;;5089393;28;20044;-79
2022/10/15 07:18:48;;;;;;;174.32;62.28;;;11.70;99.90;;;;;;5081220;28;20043;-78
2022/10/15 07:21:14;;;;;;;158.30;62.10;;;11.70;99.90;;;;;;5057032;28;20040;-77
2022/10/15 07:23:40;;;;;;;165.23;60.17;;;11.80;99.90;;;;;;5076578;28;20047;-75
2022/10/15 07:26:06;;;;;;;161.50;61.83;;;11.90;99.90;;;;;;5071043;28;20047;-75
2022/10/15 07:28:32;;;;;;;179.35;62.95;;;12.00;99.90;;;;;;5123640;27;20182;-75
2022/10/15 07:31:06;;;;;;;148.02;59.22;;;12.10;99.90;;;;;;5089252;28;20081;-79
2022/10/15 07:33:33;;;;;;;159.25;58.85;;;12.10;99.90;;;;;;5090022;28;20125;-75
2022/10/15 07:36:06;;;;;;;138.35;56.17;;;12.20;99.90;;;;;;5072510;28;20186;-79
2022/10/15 07:38:32;;;;;;;167.10;59.75;;;12.20;99.90;;;;;;5089490;28;20035;-75
2022/10/15 07:41:03;;;;;;;149.18;57.25;;;12.30;99.90;;;;;;5072271;28;20052;-77
2022/10/15 07:43:29;;;;;;;166.32;60.00;;;12.30;99.90;;;;;;5072629;28;20493;-74
2022/10/15 07:45:55;;;;;;;145.18;57.55;;;12.30;99.90;;;;;;5091916;28;21312;-75
2022/10/15 07:48:21;;;;;;;149.23;59.33;;;12.40;99.90;;;;;;5092502;28;20085;-75
2022/10/15 07:50:56;;;;;;;146.15;57.80;;;12.40;99.90;;;;;;5092269;28;20055;-75
2022/10/15 07:53:22;;;;;;;158.30;60.80;;;12.40;99.90;;;;;;5092286;28;20044;-75
2022/10/15 07:55:47;;;;;;;143.43;57.45;;;12.50;99.90;;;;;;5092623;28;20043;-75
2022/10/15 07:58:13;;;;;;;159.68;58.33;;;12.50;99.90;;;;;;5075347;28;20042;-75
2022/10/15 08:00:39;;;;;;;133.60;56.35;;;12.50;99.90;;;;;;5096223;28;20047;-76
2022/10/15 08:03:04;;;;;;;144.18;57.55;;;12.50;99.90;;;;;;5092116;28;20091;-75
2022/10/15 08:05:30;;;;;;;196.95;62.50;;;12.50;99.90;;;;;;5075619;28;20032;-75
2022/10/15 08:07:56;;;;;;;126.55;55.25;;;12.50;99.90;;;;;;5078427;27;20045;-75
2022/10/15 08:10:21;;;;;;;123.88;53.88;;;12.60;99.90;;;;;;5061142;28;20035;-75
2022/10/15 08:12:47;;;;;;;120.78;54.65;;;12.70;99.90;;;;;;5126660;27;20044;-75
2022/10/15 08:15:13;;;;;;;117.75;51.83;;;12.80;99.90;;;;;;5091846;28;20032;-75
2022/10/15 08:17:38;;;;;;;121.13;52.08;;;12.80;99.90;;;;;;5108596;28;20047;-75
2022/10/15 08:20:05;;;;;;;130.18;55.13;;;12.70;99.90;;;;;;5107267;28;20129;-79
2022/10/15 08:22:31;;;;;;;130.65;54.83;;;12.70;99.90;;;;;;5091877;28;20040;-75
2022/10/15 08:24:57;;;;;;;124.47;52.03;;;12.70;99.90;;;;;;5107869;28;20470;-75
2022/10/15 08:27:23;;;;;;;112.80;51.60;;;12.60;99.90;;;;;;5058410;28;20114;-75
2022/10/15 08:29:48;;;;;;;132.65;54.95;;;12.60;99.90;;;;;;5098633;28;20565;-75
2022/10/15 08:32:14;;;;;;;107.88;50.42;;;12.80;99.90;;;;;;5091692;28;20071;-77
2022/10/15 08:34:39;;;;;;;99.70;48.70;;;13.10;99.90;;;;;;5091812;28;20047;-76
2022/10/15 08:37:05;;;;;;;114.90;51.20;;;13.20;99.90;;;;;;5092066;28;20050;-75
2022/10/15 08:39:31;;;;;;;102.85;50.88;;;13.40;99.90;;;;;;5106604;28;20047;-75
2022/10/15 08:42:02;;;;;;;85.45;49.65;;;13.60;99.90;;;;;;5092200;28;20107;-75
2022/10/15 08:44:43;;;;;;;85.97;49.40;;;13.90;99.90;;;;;;5074573;28;20040;-75
2022/10/15 08:47:38;;;;;;;88.35;48.67;;;14.20;99.90;;;;;;5088300;28;20130;-79
2022/10/15 08:50:37;;;;;;;72.30;43.20;;;14.30;99.90;;;;;;5073041;28;20072;-75
2022/10/15 08:53:03;;;;;;;73.20;44.22;;;14.40;99.90;;;;;;5073894;28;20044;-75
2022/10/15 08:55:37;;;;;;;80.80;45.42;;;14.40;99.90;;;;;;5083295;28;20387;-77
2022/10/15 08:58:33;;;;;;;87.10;47.47;;;14.40;99.90;;;;;;5088264;28;20533;-75
2022/10/15 09:01:05;;;;;;;77.53;43.17;;;14.30;99.90;;;;;;5105030;28;20051;-76
2022/10/15 09:03:39;;;;;;;77.43;43.30;;;14.20;99.90;;;;;;5087819;28;20851;-75
2022/10/15 09:06:11;;;;;;;92.15;47.70;;;14.20;99.90;;;;;;5088512;28;20048;-76
2022/10/15 09:08:47;;;;;;;74.22;44.50;;;14.10;99.90;;;;;;5088354;28;20052;-75
2022/10/15 09:11:41;;;;;;;81.25;44.38;;;14.20;99.90;;;;;;5095784;28;20177;-76
2022/10/15 09:14:14;;;;;;;71.03;42.53;;;14.20;99.90;;;;;;5093181;28;20278;-75
2022/10/15 09:16:41;;;;;;;77.82;44.63;;;14.10;99.90;;;;;;5074920;28;20048;-76
2022/10/15 09:19:20;;;;;;;78.45;44.53;;;14.10;99.90;;;;;;5071447;28;20044;-75
2022/10/15 09:21:50;;;;;;;77.47;42.45;;;14.10;99.90;;;;;;5091771;28;20036;-76
2022/10/15 09:24:23;;;;;;;79.45;44.35;;;14.00;99.90;;;;;;5087809;28;20055;-75
2022/10/15 09:26:58;;;;;;;74.95;41.10;;;14.00;99.90;;;;;;5086746;28;20055;-76
2022/10/15 09:29:48;;;;;;;80.43;44.58;;;13.90;99.90;;;;;;5087617;28;20048;-75
2022/10/15 09:32:36;;;;;;;81.65;44.05;;;13.80;99.90;;;;;;5100859;28;20126;-78
2022/10/15 09:35:31;;;;;;;90.07;46.20;;;13.70;99.90;;;;;;5091669;28;20467;-75
2022/10/15 09:38:22;;;;;;;97.47;45.60;;;13.60;99.90;;;;;;5060412;28;20105;-75
2022/10/15 09:41:06;;;;;;;91.47;47.33;;;13.50;99.90;;;;;;5108577;28;20044;-75
2022/10/15 09:43:39;;;;;;;70.15;36.50;;;13.50;99.90;;;;;;5097532;28;20031;-75
2022/10/15 09:46:05;;;;;;;79.65;40.33;;;13.50;99.90;;;;;;5074648;28;20048;-76
2022/10/15 09:48:38;;;;;;;148.77;87.82;;;13.50;99.90;;;;;;5091373;28;20068;-75
2022/10/15 09:51:13;;;;;;;74.85;36.33;;;13.50;99.90;;;;;;5078473;28;20070;-76
2022/10/15 09:53:44;;;;;;;61.45;32.65;;;13.50;99.90;;;;;;5091681;28;20498;-75
2022/10/15 09:56:25;;;;;;;72.95;33.70;;;13.50;99.90;;;;;;5102420;28;20480;-76
2022/10/15 09:58:55;;;;;;;82.38;36.33;;;13.40;99.90;;;;;;5091713;28;20119;-75
2022/10/15 10:01:26;;;;;;;65.80;32.55;;;13.40;99.90;;;;;;5091291;28;20051;-75
2022/10/15 10:03:53;;;;;;;64.72;31.05;;;13.40;99.90;;;;;;5091410;28;20098;-75
2022/10/15 10:06:22;;;;;;;67.60;33.20;;;13.40;99.90;;;;;;5101370;28;20047;-77
2022/10/15 10:08:58;;;;;;;63.25;30.27;;;13.50;99.90;;;;;;5093457;28;20044;-75
2022/10/15 10:11:26;;;;;;;60.45;30.27;;;13.40;99.90;;;;;;5091040;28;20127;-75
2022/10/15 10:13:57;;;;;;;65.53;30.08;;;13.40;99.90;;;;;;5074346;28;20402;-74
2022/10/15 10:16:24;;;;;;;59.47;30.33;;;13.40;99.90;;;;;;5097110;28;20039;-75
2022/10/15 10:19:10;;;;;;;62.15;31.63;;;13.40;99.90;;;;;;5074351;28;20131;-76
2022/10/15 10:21:38;;;;;;;60.88;29.83;;;13.40;99.90;;;;;;5090415;28;20115;-75
2022/10/15 10:24:33;;;;;;;59.65;29.27;;;13.50;99.90;;;;;;5074595;28;20047;-75
2022/10/15 10:27:00;;;;;;;58.83;29.35;;;13.50;99.90;;;;;;5092248;28;20056;-75
2022/10/15 10:29:27;;;;;;;52.35;27.95;;;13.60;99.90;;;;;;5090404;28;20055;-75
2022/10/15 10:31:53;;;;;;;54.95;28.73;;;13.70;99.90;;;;;;5090815;28;20096;-75
2022/10/15 10:34:31;;;;;;;62.47;30.00;;;13.70;99.90;;;;;;5074141;28;20047;-75
2022/10/15 10:37:02;;;;;;;58.15;29.33;;;13.80;99.90;;;;;;5092142;28;20126;-75
2022/10/15 10:39:30;;;;;;;55.35;28.27;;;13.80;99.90;;;;;;5103394;28;20040;-75
2022/10/15 10:41:59;;;;;;;58.65;30.90;;;13.90;99.90;;;;;;5090075;28;20489;-75
2022/10/15 10:44:30;;;;;;;59.25;28.80;;;13.80;99.90;;;;;;5073119;28;20050;-76
2022/10/15 10:47:11;;;;;;;53.95;29.42;;;13.80;99.90;;;;;;5073663;28;20071;-75
2022/10/15 10:49:40;;;;;;;51.33;28.30;;;13.90;99.90;;;;;;5103186;28;20047;-75
2022/10/15 10:52:36;;;;;;;52.15;28.27;;;14.00;99.90;;;;;;5090517;28;20064;-75
2022/10/15 10:55:11;;;;;;;49.15;27.02;;;14.10;99.90;;;;;;5090896;28;20079;-75
2022/10/15 10:57:50;;;;;;;46.47;26.42;;;14.60;99.90;;;;;;5089856;28;20081;-75
2022/10/15 11:00:24;;;;;;;38.13;23.60;;;14.90;99.90;;;;;;5085224;28;20042;-75
2022/10/15 11:02:51;;;;;;;40.67;25.90;;;15.10;99.90;;;;;;5090108;28;20040;-76
2022/10/15 11:05:24;;;;;;;39.17;23.98;;;15.40;99.90;;;;;;5073335;28;20052;-75
2022/10/15 11:07:59;;;;;;;35.20;22.25;;;15.60;99.90;;;;;;5090197;28;20052;-76
2022/10/15 11:10:34;;;;;;;39.53;22.73;;;15.60;99.90;;;;;;5123344;27;20093;-79
2022/10/15 11:13:08;;;;;;;37.08;22.30;;;15.60;99.90;;;;;;5090202;28;20849;-77
2022/10/15 11:15:53;;;;;;;33.30;21.00;;;15.60;99.90;;;;;;5089565;28;20043;-77
2022/10/15 11:18:56;;;;;;;34.65;21.90;;;15.60;99.90;;;;;;5089745;28;20036;-75
2022/10/15 11:21:51;;;;;;;34.47;21.75;;;15.50;99.90;;;;;;5082122;28;20059;-75
2022/10/15 11:24:39;;;;;;;31.60;19.83;;;15.30;99.90;;;;;;5089741;28;20039;-75
2022/10/15 11:27:53;;;;;;;30.15;19.85;;;15.10;99.90;;;;;;5089970;28;20052;-76
2022/10/15 11:30:34;;;;;;;30.85;20.15;;;15.00;99.90;;;;;;5078278;28;20052;-75
2022/10/15 11:33:02;;;;;;;41.40;29.60;;;15.20;99.90;;;;;;5072799;28;20059;-76
2022/10/15 11:36:01;;;;;;;41.03;28.73;;;15.40;99.90;;;;;;5089753;28;20044;-75
2022/10/15 11:38:45;;;;;;;34.33;22.92;;;15.40;99.90;;;;;;5111333;27;20098;-75
2022/10/15 11:41:43;;;;;;;35.35;24.30;;;15.50;99.90;;;;;;5098648;28;20040;-75
2022/10/15 11:44:23;;;;;;;40.35;25.55;;;15.50;99.90;;;;;;5047574;28;20785;-76
2022/10/15 11:46:49;;;;;;;32.17;22.75;;;15.40;99.90;;;;;;5088642;28;20862;-75
2022/10/15 11:49:40;;;;;;;42.25;25.30;;;15.40;99.90;;;;;;5089149;28;20147;-77
2022/10/15 11:52:28;;;;;;;31.75;20.88;;;15.30;99.90;;;;;;5093103;28;20048;-75
2022/10/15 11:55:07;;;;;;;29.50;20.10;;;15.30;99.90;;;;;;5111940;27;20043;-76
2022/10/15 11:57:34;;;;;;;28.10;19.63;;;15.20;99.90;;;;;;5100616;28;20044;-80
2022/10/15 12:00:49;;;;;;;28.95;19.83;;;15.20;99.90;;;;;;5081331;28;20398;-76
2022/10/15 12:03:22;;;;;;;35.15;19.10;;;15.20;99.90;;;;;;5080167;28;20674;-75
2022/10/15 12:05:58;;;;;;;30.33;19.02;;;15.20;99.90;;;;;;5088487;28;20047;-75
2022/10/15 12:08:29;;;;;;;30.17;20.50;;;15.20;99.90;;;;;;5089035;28;20362;-75
2022/10/15 12:11:24;;;;;;;31.88;19.85;;;15.20;99.90;;;;;;5089516;28;20089;-76
2022/10/15 12:14:10;;;;;;;38.60;21.38;;;15.20;99.90;;;;;;5089004;28;20040;-76
2022/10/15 12:16:45;;;;;;;27.95;19.05;;;15.40;99.90;;;;;;5088521;28;20123;-76
2022/10/15 12:19:22;;;;;;;27.35;17.50;;;15.50;99.90;;;;;;5105953;28;20044;-75
2022/10/15 12:21:53;;;;;;;29.38;18.52;;;15.70;99.90;;;;;;5088332;28;20153;-76
2022/10/15 12:24:40;;;;;;;31.73;19.02;;;15.60;99.90;;;;;;5088904;28;20051;-76
2022/10/15 12:27:18;;;;;;;28.50;18.30;;;15.50;99.90;;;;;;5078071;28;20039;-76
2022/10/15 12:30:04;;;;;;;30.80;18.10;;;15.50;99.90;;;;;;5088182;28;20050;-75
2022/10/15 12:32:44;;;;;;;32.05;22.33;;;15.50;99.90;;;;;;5066621;28;20378;-76
2022/10/15 12:35:13;;;;;;;29.33;18.45;;;15.60;99.90;;;;;;5076526;28;20052;-75
2022/10/15 12:37:40;;;;;;;34.15;20.98;;;15.70;99.90;;;;;;5087828;28;20040;-77
2022/10/15 12:40:25;;;;;;;27.20;18.10;;;15.70;99.90;;;;;;5088660;28;20111;-76